createdAt,value
2023-02-19T00:01:11.179Z,3.33
2023-02-19T00:03:38.806Z,3.75
2023-02-19T00:06:07.214Z,3.80
2023-02-19T00:08:34.993Z,3.72
2023-02-19T00:11:11.107Z,3.85
2023-02-19T00:13:39.389Z,4.00
2023-02-19T00:16:07.787Z,3.33
2023-02-19T00:18:34.609Z,4.18
2023-02-19T00:21:01.605Z,3.75
2023-02-19T00:23:28.062Z,3.95
2023-02-19T00:25:54.903Z,3.70
2023-02-19T00:28:22.224Z,3.15
2023-02-19T00:30:48.915Z,3.60
2023-02-19T00:33:16.030Z,3.45
2023-02-19T00:35:42.386Z,4.13
2023-02-19T00:38:08.744Z,3.87
2023-02-19T00:40:35.220Z,3.55
2023-02-19T00:43:01.552Z,3.80
2023-02-19T00:45:27.938Z,3.60
2023-02-19T00:47:54.439Z,4.45
2023-02-19T00:50:21.315Z,3.43
2023-02-19T00:52:47.712Z,3.70
2023-02-19T00:55:15.203Z,3.90
2023-02-19T00:57:41.589Z,4.40
2023-02-19T01:00:08.710Z,4.05
2023-02-19T01:02:35.217Z,4.57
2023-02-19T01:05:01.689Z,3.83
2023-02-19T01:07:28.131Z,4.80
2023-02-19T01:09:54.506Z,4.40
2023-02-19T01:12:20.969Z,5.00
2023-02-19T01:14:47.359Z,4.93
2023-02-19T01:17:13.796Z,4.72
2023-02-19T01:19:40.244Z,5.57
2023-02-19T01:22:06.578Z,4.55
2023-02-19T01:24:33.090Z,5.55
2023-02-19T01:26:59.500Z,5.17
2023-02-19T01:29:25.814Z,5.40
2023-02-19T01:31:52.212Z,5.13
2023-02-19T01:34:18.573Z,5.22
2023-02-19T01:36:44.942Z,4.90
2023-02-19T01:39:11.329Z,5.23
2023-02-19T01:41:40.243Z,4.20
2023-02-19T01:44:12.527Z,4.53
2023-02-19T01:46:41.154Z,4.35
2023-02-19T01:49:15.696Z,4.00
2023-02-19T01:51:46.242Z,4.30
2023-02-19T01:54:16.215Z,4.63
2023-02-19T01:56:45.903Z,4.70
2023-02-19T01:59:12.870Z,4.30
2023-02-19T02:01:41.149Z,4.78
2023-02-19T02:04:09.940Z,4.33
2023-02-19T02:06:57.274Z,4.75
2023-02-19T02:09:26.983Z,4.90
2023-02-19T02:11:53.320Z,4.00
2023-02-19T02:14:24.447Z,4.43
2023-02-19T02:17:11.886Z,4.07
2023-02-19T02:19:41.169Z,5.00
2023-02-19T02:22:16.099Z,4.47
2023-02-19T02:25:09.244Z,4.00
2023-02-19T02:27:39.302Z,3.95
2023-02-19T02:30:18.217Z,4.03
2023-02-19T02:33:02.829Z,3.33
2023-02-19T02:35:42.630Z,3.05
2023-02-19T02:38:11.473Z,3.60
2023-02-19T02:40:41.891Z,3.20
2023-02-19T02:43:08.327Z,3.30
2023-02-19T02:45:34.974Z,2.60
2023-02-19T02:48:27.345Z,2.35
2023-02-19T02:50:59.185Z,3.08
2023-02-19T02:53:44.253Z,2.47
2023-02-19T02:56:12.101Z,2.70
2023-02-19T02:58:38.829Z,2.67
2023-02-19T03:01:11.522Z,3.08
2023-02-19T03:03:42.094Z,2.38
2023-02-19T03:06:11.906Z,2.80
2023-02-19T03:08:42.640Z,2.73
2023-02-19T03:11:12.754Z,3.22
2023-02-19T03:13:39.447Z,2.78
2023-02-19T03:16:15.304Z,2.53
2023-02-19T03:18:45.665Z,3.08
2023-02-19T03:21:13.881Z,3.07
2023-02-19T03:23:41.617Z,3.60
2023-02-19T03:26:10.406Z,3.20
2023-02-19T03:28:40.489Z,3.60
2023-02-19T03:31:12.718Z,3.53
2023-02-19T03:33:41.603Z,3.37
2023-02-19T03:36:13.584Z,3.33
2023-02-19T03:38:44.182Z,3.60
2023-02-19T03:41:15.072Z,3.53
2023-02-19T03:43:52.633Z,3.88
2023-02-19T03:46:33.418Z,3.40
2023-02-19T03:49:11.531Z,3.70
2023-02-19T03:51:50.885Z,3.13
2023-02-19T03:54:30.532Z,3.40
2023-02-19T03:57:19.009Z,3.08
2023-02-19T04:00:32.396Z,2.97
2023-02-19T04:03:07.803Z,3.50
2023-02-19T04:05:39.750Z,3.30
2023-02-19T04:08:17.459Z,3.17
2023-02-19T04:10:46.092Z,3.25
2023-02-19T04:13:23.178Z,3.33
2023-02-19T04:15:51.724Z,3.20
2023-02-19T04:18:23.548Z,3.30
2023-02-19T04:20:50.397Z,3.20
2023-02-19T04:23:20.787Z,3.13
2023-02-19T04:25:51.162Z,3.10
2023-02-19T04:28:18.289Z,3.00
2023-02-19T04:30:45.341Z,3.40
2023-02-19T04:33:11.623Z,3.17
2023-02-19T04:35:38.010Z,2.97
2023-02-19T04:38:04.442Z,2.50
2023-02-19T04:40:30.842Z,2.60
2023-02-19T04:42:57.214Z,3.20
2023-02-19T04:45:26.418Z,2.47
2023-02-19T04:47:52.824Z,2.50
2023-02-19T04:50:19.196Z,2.70
2023-02-19T04:52:45.517Z,2.88
2023-02-19T04:55:11.950Z,3.25
2023-02-19T04:57:38.243Z,3.28
2023-02-19T05:00:05.077Z,2.58
2023-02-19T05:02:31.516Z,2.47
2023-02-19T05:04:57.849Z,2.10
2023-02-19T05:07:24.162Z,2.30
2023-02-19T05:09:50.542Z,2.88
2023-02-19T05:12:16.844Z,2.92
2023-02-19T05:14:43.203Z,3.00
2023-02-19T05:17:09.488Z,2.97
2023-02-19T05:19:35.941Z,2.78
2023-02-19T05:22:03.305Z,3.03
2023-02-19T05:24:30.172Z,3.28
2023-02-19T05:26:56.513Z,3.03
2023-02-19T05:29:23.172Z,3.70
2023-02-19T05:31:49.654Z,3.47
2023-02-19T05:34:16.019Z,3.28
2023-02-19T05:36:42.407Z,3.30
2023-02-19T05:39:11.624Z,2.93
2023-02-19T05:41:37.969Z,3.45
2023-02-19T05:44:04.475Z,3.15
2023-02-19T05:46:31.339Z,4.30
2023-02-19T05:48:58.429Z,3.45
2023-02-19T05:51:26.510Z,4.20
2023-02-19T05:53:56.462Z,3.47
2023-02-19T05:56:25.712Z,3.85
2023-02-19T05:58:53.333Z,3.78
2023-02-19T06:01:21.618Z,3.90
2023-02-19T06:03:48.163Z,3.67
2023-02-19T06:06:15.739Z,3.97
2023-02-19T06:08:42.123Z,4.05
2023-02-19T06:11:09.080Z,4.38
2023-02-19T06:13:36.085Z,4.20
2023-02-19T06:16:07.241Z,3.80
2023-02-19T06:18:35.276Z,4.20
2023-02-19T06:21:06.087Z,3.67
2023-02-19T06:23:35.939Z,3.78
2023-02-19T06:26:10.194Z,4.13
2023-02-19T06:28:37.882Z,3.53
2023-02-19T06:31:05.194Z,4.22
2023-02-19T06:33:33.370Z,4.53
2023-02-19T06:36:04.256Z,4.40
2023-02-19T06:38:31.537Z,4.80
2023-02-19T06:41:02.805Z,4.07
2023-02-19T06:43:29.427Z,4.30
2023-02-19T06:45:58.556Z,4.10
2023-02-19T06:48:26.191Z,4.75
2023-02-19T06:50:52.644Z,3.90
2023-02-19T06:53:18.980Z,4.17
2023-02-19T06:56:05.544Z,4.28
2023-02-19T06:58:32.566Z,4.25
2023-02-19T07:00:59.706Z,4.05
2023-02-19T07:03:26.240Z,5.05
2023-02-19T07:05:53.060Z,4.17
2023-02-19T07:08:19.584Z,4.30
2023-02-19T07:10:46.224Z,4.75
2023-02-19T07:13:12.684Z,4.38
2023-02-19T07:15:39.051Z,4.40
2023-02-19T07:18:05.418Z,4.13
2023-02-19T07:20:31.692Z,4.72
2023-02-19T07:22:58.014Z,4.22
2023-02-19T07:25:24.325Z,5.78
2023-02-19T07:27:50.611Z,4.95
2023-02-19T07:30:16.992Z,5.03
2023-02-19T07:32:43.384Z,5.57
2023-02-19T07:35:09.727Z,5.32
2023-02-19T07:37:36.077Z,7.25
2023-02-19T07:40:03.161Z,8.48
2023-02-19T07:42:30.466Z,5.93
2023-02-19T07:45:00.509Z,6.38
2023-02-19T07:47:27.491Z,8.27
2023-02-19T07:49:53.829Z,6.38
2023-02-19T07:52:20.237Z,9.02
2023-02-19T07:54:46.589Z,7.13
2023-02-19T07:57:13.000Z,8.43
2023-02-19T07:59:39.308Z,6.40
2023-02-19T08:02:23.279Z,7.53
2023-02-19T08:04:49.641Z,7.32
2023-02-19T08:07:16.928Z,6.97
2023-02-19T08:09:44.225Z,6.85
2023-02-19T08:12:11.515Z,5.95
2023-02-19T08:14:37.829Z,6.82
2023-02-19T08:17:04.123Z,6.15
2023-02-19T08:19:30.443Z,5.97
2023-02-19T08:21:56.737Z,6.60
2023-02-19T08:24:23.122Z,7.35
2023-02-19T08:26:49.591Z,6.18
2023-02-19T08:29:16.091Z,6.40
2023-02-19T08:31:42.643Z,6.70
2023-02-19T08:34:09.149Z,6.15
2023-02-19T08:36:35.550Z,7.40
2023-02-19T08:39:01.835Z,7.25
2023-02-19T08:41:28.097Z,6.97
2023-02-19T08:43:54.480Z,7.10
2023-02-19T08:46:20.894Z,7.22
2023-02-19T08:48:47.266Z,7.93
2023-02-19T08:51:13.836Z,6.82
2023-02-19T08:53:41.118Z,7.50
2023-02-19T08:56:13.198Z,7.37
2023-02-19T08:58:40.350Z,6.72
2023-02-19T09:01:12.320Z,8.02
2023-02-19T09:03:39.071Z,7.45
2023-02-19T09:06:05.651Z,5.95
2023-02-19T09:08:31.968Z,5.73
2023-02-19T09:11:03.076Z,6.03
2023-02-19T09:13:29.472Z,5.85
2023-02-19T09:15:56.070Z,5.35
2023-02-19T09:18:23.398Z,5.57
2023-02-19T09:20:49.823Z,5.40
2023-02-19T09:23:16.212Z,4.90
2023-02-19T09:25:42.769Z,5.05
2023-02-19T09:28:09.150Z,4.82
2023-02-19T09:30:35.601Z,5.15
2023-02-19T09:33:01.967Z,5.00
2023-02-19T09:35:28.257Z,4.10
2023-02-19T09:37:54.573Z,4.85
2023-02-19T09:40:21.971Z,4.45
2023-02-19T09:42:50.729Z,4.68
2023-02-19T09:45:24.479Z,3.87
2023-02-19T09:47:55.903Z,4.50
2023-02-19T09:50:29.810Z,3.65
2023-02-19T09:52:59.992Z,4.05
2023-02-19T09:55:38.867Z,3.70
2023-02-19T09:58:23.745Z,2.03
2023-02-19T10:00:51.940Z,2.45
2023-02-19T10:03:38.403Z,2.40
2023-02-19T10:06:26.825Z,2.35
2023-02-19T10:09:02.662Z,2.75
2023-02-19T10:11:29.131Z,2.07
2023-02-19T10:14:06.982Z,2.65
2023-02-19T10:16:33.976Z,2.97
2023-02-19T10:19:00.755Z,2.97
2023-02-19T10:21:28.136Z,2.85
2023-02-19T10:24:01.872Z,2.63
2023-02-19T10:26:28.526Z,2.53
2023-02-19T10:28:54.790Z,2.22
2023-02-19T10:31:24.627Z,2.17
2023-02-19T10:33:56.973Z,2.53
2023-02-19T10:36:25.921Z,2.17
2023-02-19T10:38:53.112Z,2.20
2023-02-19T10:41:22.360Z,2.25
2023-02-19T10:43:56.320Z,2.30
2023-02-19T10:46:29.207Z,2.20
2023-02-19T10:49:02.713Z,2.10
2023-02-19T10:51:35.622Z,2.10
2023-02-19T10:54:20.189Z,2.70
2023-02-19T10:56:47.096Z,2.20
2023-02-19T10:59:29.805Z,1.85
2023-02-19T11:02:15.540Z,1.80
2023-02-19T11:04:41.974Z,2.17
2023-02-19T11:07:17.350Z,2.00
2023-02-19T11:09:47.556Z,1.92
2023-02-19T11:12:23.284Z,2.15
2023-02-19T11:14:49.775Z,1.90
2023-02-19T11:17:28.587Z,2.22
2023-02-19T11:20:04.017Z,1.73
2023-02-19T11:22:37.917Z,1.77
2023-02-19T11:25:10.029Z,1.98
2023-02-19T11:27:53.095Z,1.40
2023-02-19T11:30:41.266Z,1.95
2023-02-19T11:33:17.106Z,1.77
2023-02-19T11:35:44.769Z,1.98
2023-02-19T11:38:13.637Z,2.28
2023-02-19T11:41:04.295Z,2.10
2023-02-19T11:43:40.205Z,1.83
2023-02-19T11:46:17.241Z,1.88
2023-02-19T11:49:02.097Z,1.58
2023-02-19T11:52:02.553Z,1.90
2023-02-19T11:54:55.323Z,2.00
2023-02-19T11:57:39.651Z,1.75
2023-02-19T12:00:26.075Z,2.15
2023-02-19T12:03:13.817Z,1.80
2023-02-19T12:05:40.108Z,1.83
2023-02-19T12:08:21.754Z,1.90
2023-02-19T12:11:26.023Z,1.98
2023-02-19T12:14:21.564Z,1.83
2023-02-19T12:16:51.927Z,1.90
2023-02-19T12:19:43.639Z,2.17
2023-02-19T12:22:28.200Z,1.77
2023-02-19T12:25:23.621Z,1.52
2023-02-19T12:27:56.037Z,2.08
2023-02-19T12:30:53.598Z,1.95
2023-02-19T12:33:53.586Z,1.98
2023-02-19T12:36:44.478Z,1.73
2023-02-19T12:39:28.944Z,2.15
2023-02-19T12:42:08.885Z,1.83
2023-02-19T12:45:06.229Z,1.80
2023-02-19T12:47:40.485Z,1.65
2023-02-19T12:50:12.820Z,1.63
2023-02-19T12:52:43.422Z,2.00
2023-02-19T12:55:32.529Z,1.70
2023-02-19T12:58:02.536Z,1.70
2023-02-19T13:00:40.851Z,1.70
2023-02-19T13:03:14.832Z,1.33
2023-02-19T13:05:57.517Z,1.30
2023-02-19T13:09:05.451Z,1.70
2023-02-19T13:11:40.202Z,1.48
2023-02-19T13:14:27.741Z,1.63
2023-02-19T13:17:35.537Z,1.47
2023-02-19T13:20:13.519Z,1.50
2023-02-19T13:22:46.078Z,1.70
2023-02-19T13:25:14.231Z,1.40
2023-02-19T13:27:56.516Z,1.70
2023-02-19T13:30:47.541Z,1.20
2023-02-19T13:33:36.491Z,1.20
2023-02-19T13:36:33.355Z,1.02
2023-02-19T13:39:00.124Z,1.00
2023-02-19T13:41:29.637Z,1.05
2023-02-19T13:44:00.347Z,0.90
2023-02-19T13:46:35.579Z,1.15
2023-02-19T13:49:24.898Z,1.50
2023-02-19T13:51:58.540Z,1.23
2023-02-19T13:54:28.020Z,1.23
2023-02-19T13:57:22.397Z,0.83
2023-02-19T13:59:56.731Z,1.02
2023-02-19T14:02:23.109Z,1.10
2023-02-19T14:05:10.575Z,1.17
2023-02-19T14:08:03.323Z,1.10
2023-02-19T14:10:53.131Z,1.10
2023-02-19T14:13:47.381Z,1.10
2023-02-19T14:16:31.445Z,1.10
2023-02-19T14:18:57.944Z,1.00
2023-02-19T14:21:34.396Z,1.00
2023-02-19T14:24:02.539Z,1.03
2023-02-19T14:26:31.907Z,0.95
2023-02-19T14:28:59.572Z,1.08
2023-02-19T14:31:36.042Z,1.55
2023-02-19T14:34:15.694Z,1.08
2023-02-19T14:36:52.992Z,0.83
2023-02-19T14:39:29.367Z,1.10
2023-02-19T14:41:59.980Z,1.42
2023-02-19T14:44:30.773Z,0.90
2023-02-19T14:47:09.246Z,1.20
2023-02-19T14:49:41.346Z,1.10
2023-02-19T14:52:18.380Z,0.88
2023-02-19T14:54:56.938Z,0.80
2023-02-19T14:57:28.584Z,0.90
2023-02-19T14:59:58.820Z,0.85
2023-02-19T15:02:27.099Z,0.90
2023-02-19T15:04:54.478Z,0.80
2023-02-19T15:07:27.996Z,0.85
2023-02-19T15:09:57.889Z,0.90
2023-02-19T15:12:28.427Z,0.93
2023-02-19T15:14:59.583Z,1.10
2023-02-19T15:17:29.472Z,1.02
2023-02-19T15:19:59.184Z,0.98
2023-02-19T15:22:27.741Z,0.88
2023-02-19T15:24:55.380Z,1.05
2023-02-19T15:27:24.394Z,1.03
2023-02-19T15:29:53.726Z,0.85
2023-02-19T15:32:22.871Z,1.10
2023-02-19T15:35:00.966Z,1.25
2023-02-19T15:37:33.516Z,1.10
2023-02-19T15:40:04.627Z,1.67
2023-02-19T15:42:34.047Z,1.10
2023-02-19T15:45:17.116Z,1.40
2023-02-19T15:47:50.186Z,1.20
2023-02-19T15:50:30.682Z,1.30
2023-02-19T15:53:06.598Z,1.00
2023-02-19T15:55:42.723Z,1.25
2023-02-19T15:58:26.455Z,1.80
2023-02-19T16:00:57.906Z,2.60
2023-02-19T16:03:28.102Z,1.80
2023-02-19T16:06:02.692Z,1.20
2023-02-19T16:08:36.910Z,1.60
2023-02-19T16:11:23.430Z,1.58
2023-02-19T16:13:51.314Z,1.75
2023-02-19T16:16:27.198Z,1.58
2023-02-19T16:18:54.040Z,1.37
2023-02-19T16:21:23.486Z,1.45
2023-02-19T16:23:56.093Z,2.00
2023-02-19T16:26:22.816Z,2.05
2023-02-19T16:28:54.284Z,2.38
2023-02-19T16:31:23.474Z,2.10
2023-02-19T16:33:50.832Z,2.15
2023-02-19T16:36:26.220Z,1.88
2023-02-19T16:39:07.517Z,2.20
2023-02-19T16:41:40.030Z,2.05
2023-02-19T16:44:21.692Z,1.83
2023-02-19T16:46:53.358Z,1.92
2023-02-19T16:49:21.450Z,2.10
2023-02-19T16:51:47.847Z,2.15
2023-02-19T16:54:14.194Z,1.67
2023-02-19T16:56:40.575Z,1.60
2023-02-19T16:59:06.965Z,2.00
2023-02-19T17:01:35.229Z,1.80
2023-02-19T17:04:05.719Z,1.90
2023-02-19T17:06:32.321Z,2.00
2023-02-19T17:08:58.928Z,1.67
2023-02-19T17:11:25.259Z,2.25
2023-02-19T17:13:51.552Z,2.30
2023-02-19T17:16:20.078Z,2.13
2023-02-19T17:18:46.584Z,2.20
2023-02-19T17:21:28.127Z,2.07
2023-02-19T17:23:55.182Z,1.70
2023-02-19T17:26:32.027Z,1.98
2023-02-19T17:28:59.811Z,2.30
2023-02-19T17:31:26.471Z,2.50
2023-02-19T17:33:53.372Z,2.20
2023-02-19T17:36:23.558Z,2.55
2023-02-19T17:38:49.936Z,1.90
2023-02-19T17:41:16.235Z,2.22
2023-02-19T17:43:42.605Z,2.03
2023-02-19T17:46:15.140Z,2.20
2023-02-19T17:48:41.456Z,1.95
2023-02-19T17:51:08.158Z,2.08
2023-02-19T17:53:34.518Z,1.80
2023-02-19T17:56:00.864Z,2.08
2023-02-19T17:58:27.281Z,1.90
2023-02-19T18:00:53.909Z,1.90
2023-02-19T18:03:20.261Z,1.67
2023-02-19T18:05:46.939Z,1.58
2023-02-19T18:08:13.816Z,1.90
2023-02-19T18:10:40.229Z,1.43
2023-02-19T18:13:06.505Z,1.80
2023-02-19T18:15:33.147Z,1.70
2023-02-19T18:17:59.645Z,2.10
2023-02-19T18:20:28.278Z,1.60
2023-02-19T18:22:55.939Z,1.53
2023-02-19T18:25:22.945Z,1.35
2023-02-19T18:27:49.851Z,1.50
2023-02-19T18:30:18.019Z,1.45
2023-02-19T18:32:45.355Z,1.33
2023-02-19T18:35:11.678Z,1.47
2023-02-19T18:37:38.178Z,1.45
2023-02-19T18:40:05.482Z,1.27
2023-02-19T18:42:31.885Z,1.08
2023-02-19T18:44:59.360Z,1.20
2023-02-19T18:47:25.943Z,1.30
2023-02-19T18:49:54.979Z,0.98
2023-02-19T18:52:23.039Z,1.00
2023-02-19T18:54:51.279Z,1.00
2023-02-19T18:57:22.329Z,1.08
2023-02-19T18:59:48.855Z,1.10
2023-02-19T19:02:15.779Z,1.08
2023-02-19T19:04:42.398Z,1.50
2023-02-19T19:07:09.962Z,1.20
2023-02-19T19:09:36.929Z,1.15
2023-02-19T19:12:03.698Z,1.07
2023-02-19T19:14:30.052Z,1.10
2023-02-19T19:16:56.417Z,1.20
2023-02-19T19:19:23.022Z,1.20
2023-02-19T19:21:56.162Z,1.20
2023-02-19T19:24:23.686Z,1.20
2023-02-19T19:26:51.127Z,1.30
2023-02-19T19:29:20.388Z,1.70
2023-02-19T19:31:46.924Z,1.30
2023-02-19T19:34:13.925Z,1.60
2023-02-19T19:36:40.384Z,1.47
2023-02-19T19:39:06.837Z,1.25
2023-02-19T19:41:33.243Z,1.27
2023-02-19T19:44:03.901Z,1.50
2023-02-19T19:46:30.232Z,1.20
2023-02-19T19:48:57.652Z,1.40
2023-02-19T19:51:23.954Z,2.28
2023-02-19T19:53:50.454Z,2.05
2023-02-19T19:56:17.704Z,1.30
2023-02-19T19:58:44.236Z,1.67
2023-02-19T20:01:10.903Z,1.90
2023-02-19T20:03:37.733Z,1.85
2023-02-19T20:06:04.322Z,1.92
2023-02-19T20:08:30.651Z,2.00
2023-02-19T20:10:56.992Z,1.90
2023-02-19T20:13:23.308Z,2.07
2023-02-19T20:15:50.939Z,1.70
2023-02-19T20:18:17.342Z,2.00
2023-02-19T20:20:43.751Z,1.98
2023-02-19T20:23:10.093Z,1.40
2023-02-19T20:25:36.377Z,1.60
2023-02-19T20:28:03.116Z,1.48
2023-02-19T20:30:29.538Z,2.15
2023-02-19T20:32:55.909Z,2.65
2023-02-19T20:35:22.246Z,2.30
2023-02-19T20:37:48.589Z,2.63
2023-02-19T20:40:17.650Z,3.42
2023-02-19T20:42:44.013Z,3.20
2023-02-19T20:45:10.396Z,3.63
2023-02-19T20:47:39.542Z,3.20
2023-02-19T20:50:07.346Z,3.93
2023-02-19T20:52:33.701Z,4.72
2023-02-19T20:55:00.081Z,4.32
2023-02-19T20:57:26.491Z,4.00
2023-02-19T20:59:52.915Z,4.22
2023-02-19T21:02:27.033Z,4.80
2023-02-19T21:04:53.411Z,3.72
2023-02-19T21:07:19.759Z,4.82
2023-02-19T21:09:46.120Z,4.95
2023-02-19T21:12:12.486Z,4.57
2023-02-19T21:14:39.437Z,4.67
2023-02-19T21:17:05.770Z,4.00
2023-02-19T21:19:32.110Z,3.97
2023-02-19T21:21:58.412Z,4.38
2023-02-19T21:24:24.761Z,3.80
2023-02-19T21:26:51.186Z,4.43
2023-02-19T21:29:20.917Z,4.55
2023-02-19T21:31:52.920Z,3.50
2023-02-19T21:34:21.916Z,3.63
2023-02-19T21:36:48.667Z,3.80
2023-02-19T21:39:17.908Z,3.83
2023-02-19T21:41:44.443Z,3.78
2023-02-19T21:44:10.982Z,3.50
2023-02-19T21:46:37.278Z,3.80
2023-02-19T21:49:03.627Z,3.85
2023-02-19T21:51:35.228Z,3.27
2023-02-19T21:54:02.530Z,3.10
2023-02-19T21:56:31.299Z,3.20
2023-02-19T21:58:58.285Z,3.40
2023-02-19T22:01:33.824Z,2.90
2023-02-19T22:04:01.083Z,2.77
2023-02-19T22:06:29.358Z,2.95
2023-02-19T22:08:56.178Z,3.00
2023-02-19T22:11:22.574Z,3.30
2023-02-19T22:13:49.067Z,3.50
2023-02-19T22:16:16.000Z,2.90
2023-02-19T22:18:49.910Z,3.35
2023-02-19T22:21:17.831Z,2.90
2023-02-19T22:23:48.794Z,3.17
2023-02-19T22:26:29.978Z,3.20
2023-02-19T22:28:56.703Z,3.47
2023-02-19T22:31:24.414Z,2.80
2023-02-19T22:33:51.588Z,3.38
2023-02-19T22:36:20.919Z,3.40
2023-02-19T22:38:48.006Z,3.20
2023-02-19T22:41:15.915Z,3.70
2023-02-19T22:43:42.319Z,4.05
2023-02-19T22:46:20.449Z,3.67
2023-02-19T22:48:46.909Z,3.22
2023-02-19T22:51:16.482Z,3.97
2023-02-19T22:53:53.654Z,3.87
2023-02-19T22:56:22.068Z,3.65
2023-02-19T22:58:48.463Z,4.30
2023-02-19T23:01:15.098Z,4.38
2023-02-19T23:03:56.345Z,4.25
2023-02-19T23:06:28.892Z,4.57
2023-02-19T23:08:56.896Z,4.38
2023-02-19T23:11:32.291Z,4.70
2023-02-19T23:13:58.776Z,4.63
2023-02-19T23:16:25.254Z,4.22
2023-02-19T23:18:52.493Z,4.93
2023-02-19T23:21:19.961Z,4.68
2023-02-19T23:23:46.610Z,5.00
2023-02-19T23:26:14.320Z,5.38
2023-02-19T23:28:41.890Z,4.60
2023-02-19T23:31:08.460Z,5.00
2023-02-19T23:33:35.367Z,5.00
2023-02-19T23:36:01.830Z,5.18
2023-02-19T23:38:28.182Z,5.90
2023-02-19T23:40:54.524Z,5.07
2023-02-19T23:43:21.041Z,5.67
2023-02-19T23:45:47.651Z,5.47
2023-02-19T23:48:14.321Z,5.03
2023-02-19T23:50:40.927Z,5.65
2023-02-19T23:53:07.340Z,5.93
2023-02-19T23:55:33.666Z,6.50
2023-02-19T23:58:00.030Z,6.93
